createdAt,value
2018-06-20T00:02:09.057Z,25.50
2018-06-20T00:04:37.955Z,24.00
2018-06-20T00:07:06.826Z,24.83
2018-06-20T00:09:35.718Z,23.10
2018-06-20T00:12:04.631Z,24.67
2018-06-20T00:14:33.523Z,23.50
2018-06-20T00:17:02.396Z,24.97
2018-06-20T00:19:31.273Z,25.17
2018-06-20T00:22:00.147Z,23.77
2018-06-20T00:24:29.146Z,24.97
2018-06-20T00:26:58.242Z,25.57
2018-06-20T00:29:27.235Z,24.60
2018-06-20T00:31:56.114Z,24.17
2018-06-20T00:34:25.020Z,25.33
2018-06-20T00:36:53.910Z,23.30
2018-06-20T00:39:22.799Z,22.47
2018-06-20T00:41:51.671Z,24.20
2018-06-20T00:44:20.570Z,24.30
2018-06-20T00:46:49.496Z,24.03
2018-06-20T00:49:18.367Z,24.23
2018-06-20T00:51:47.240Z,23.30
2018-06-20T00:54:16.151Z,24.17
2018-06-20T00:56:45.030Z,24.43
2018-06-20T00:59:13.910Z,23.57
2018-06-20T01:01:42.782Z,23.70
2018-06-20T01:04:11.670Z,23.60
2018-06-20T01:06:40.551Z,24.37
2018-06-20T01:09:10.262Z,23.97
2018-06-20T01:11:39.205Z,25.23
2018-06-20T01:14:08.034Z,24.27
2018-06-20T01:16:36.910Z,24.80
2018-06-20T01:19:05.794Z,24.00
2018-06-20T01:21:34.679Z,23.47
2018-06-20T01:24:03.591Z,24.03
2018-06-20T01:26:32.461Z,24.10
2018-06-20T01:29:01.356Z,25.17
2018-06-20T01:31:30.219Z,25.67
2018-06-20T01:33:59.116Z,24.43
2018-06-20T01:36:27.989Z,24.37
2018-06-20T01:38:56.871Z,24.00
2018-06-20T01:41:25.739Z,24.00
2018-06-20T01:43:54.621Z,23.77
2018-06-20T01:46:23.486Z,25.33
2018-06-20T01:48:52.373Z,22.03
2018-06-20T01:51:21.254Z,24.23
2018-06-20T01:53:50.152Z,23.47
2018-06-20T01:56:19.009Z,23.73
2018-06-20T01:58:47.886Z,22.53
2018-06-20T02:01:16.767Z,22.93
2018-06-20T02:03:45.682Z,24.93
2018-06-20T02:06:14.575Z,25.13
2018-06-20T02:08:43.491Z,25.03
2018-06-20T02:11:12.382Z,24.43
2018-06-20T02:13:41.243Z,25.97
2018-06-20T02:16:10.127Z,25.23
2018-06-20T02:18:38.989Z,24.53
2018-06-20T02:21:07.881Z,25.53
2018-06-20T02:23:37.071Z,24.53
2018-06-20T02:26:05.958Z,26.10
2018-06-20T02:28:34.827Z,26.57
2018-06-20T02:31:03.715Z,25.27
2018-06-20T02:33:32.585Z,26.53
2018-06-20T02:36:05.714Z,27.40
2018-06-20T02:38:34.588Z,27.57
2018-06-20T02:41:03.458Z,26.60
2018-06-20T02:43:32.323Z,27.23
2018-06-20T02:46:01.213Z,26.27
2018-06-20T02:48:30.080Z,26.83
2018-06-20T02:50:58.963Z,27.27
2018-06-20T02:53:27.837Z,27.43
2018-06-20T02:55:56.716Z,27.57
2018-06-20T02:58:25.573Z,27.03
2018-06-20T03:00:54.450Z,27.60
2018-06-20T03:03:23.324Z,27.73
2018-06-20T03:05:52.285Z,28.60
2018-06-20T03:08:21.150Z,28.57
2018-06-20T03:10:50.057Z,28.00
2018-06-20T03:13:18.926Z,30.40
2018-06-20T03:15:47.901Z,28.60
2018-06-20T03:18:16.802Z,30.57
2018-06-20T03:20:45.692Z,29.33
2018-06-20T03:23:14.570Z,30.27
2018-06-20T03:25:43.463Z,28.93
2018-06-20T03:28:12.338Z,29.50
2018-06-20T03:30:41.220Z,29.67
2018-06-20T03:33:10.103Z,29.73
2018-06-20T03:35:38.991Z,29.83
2018-06-20T03:38:07.866Z,30.30
2018-06-20T03:40:36.738Z,29.73
2018-06-20T03:43:05.655Z,27.87
2018-06-20T03:45:34.546Z,28.27
2018-06-20T03:48:03.910Z,29.50
2018-06-20T03:50:33.217Z,30.40
2018-06-20T03:53:02.091Z,29.87
2018-06-20T03:55:30.971Z,30.90
2018-06-20T03:57:59.962Z,29.67
2018-06-20T04:00:28.839Z,29.77
2018-06-20T04:02:57.706Z,29.43
2018-06-20T04:05:29.788Z,28.90
2018-06-20T04:07:58.931Z,31.10
2018-06-20T04:10:27.822Z,30.37
2018-06-20T04:12:56.722Z,30.83
2018-06-20T04:15:25.611Z,30.27
2018-06-20T04:17:54.486Z,32.20
2018-06-20T04:20:23.370Z,31.63
2018-06-20T04:22:52.259Z,31.17
2018-06-20T04:25:21.155Z,31.03
2018-06-20T04:27:50.316Z,30.43
2018-06-20T04:30:19.462Z,30.00
2018-06-20T04:32:48.454Z,30.80
2018-06-20T04:35:17.330Z,31.20
2018-06-20T04:37:46.226Z,31.77
2018-06-20T04:40:15.097Z,31.77
2018-06-20T04:42:43.981Z,30.57
2018-06-20T04:45:12.864Z,30.57
2018-06-20T04:47:41.750Z,30.13
2018-06-20T04:50:10.621Z,30.67
2018-06-20T04:52:39.497Z,30.57
2018-06-20T04:55:08.370Z,29.50
2018-06-20T04:57:37.354Z,29.23
2018-06-20T05:00:06.256Z,27.63
2018-06-20T05:02:35.145Z,28.23
2018-06-20T05:05:04.129Z,28.00
2018-06-20T05:07:33.050Z,28.40
2018-06-20T05:10:01.935Z,28.63
2018-06-20T05:12:30.845Z,27.57
2018-06-20T05:14:59.735Z,28.93
2018-06-20T05:17:28.628Z,28.47
2018-06-20T05:19:57.519Z,27.80
2018-06-20T05:22:26.186Z,28.53
2018-06-20T05:24:54.955Z,27.73
2018-06-20T05:27:23.842Z,27.90
2018-06-20T05:29:52.733Z,27.70
2018-06-20T05:32:21.657Z,27.47
2018-06-20T05:34:50.515Z,27.37
2018-06-20T05:37:19.405Z,26.63
2018-06-20T05:39:48.272Z,27.83
2018-06-20T05:42:17.170Z,27.90
2018-06-20T05:44:46.065Z,27.00
2018-06-20T05:47:14.963Z,27.30
2018-06-20T05:49:43.830Z,27.90
2018-06-20T05:52:12.722Z,26.93
2018-06-20T05:54:41.599Z,27.50
2018-06-20T05:57:10.498Z,26.97
2018-06-20T05:59:39.373Z,25.73
2018-06-20T06:02:08.246Z,26.27
2018-06-20T06:04:37.125Z,26.23
2018-06-20T06:07:06.019Z,26.13
2018-06-20T06:09:34.914Z,26.27
2018-06-20T06:12:03.894Z,25.53
2018-06-20T06:14:32.699Z,25.33
2018-06-20T06:17:01.661Z,25.70
2018-06-20T06:19:30.466Z,25.03
2018-06-20T06:21:59.359Z,26.00
2018-06-20T06:24:28.257Z,25.23
2018-06-20T06:26:57.146Z,25.17
2018-06-20T06:29:26.024Z,25.83
2018-06-20T06:31:54.911Z,25.60
2018-06-20T06:34:23.785Z,26.43
2018-06-20T06:36:52.675Z,26.37
2018-06-20T06:39:21.558Z,25.83
2018-06-20T06:41:50.466Z,25.53
2018-06-20T06:44:19.341Z,25.17
2018-06-20T06:46:48.216Z,26.37
2018-06-20T06:49:17.106Z,25.17
2018-06-20T06:51:46.006Z,25.87
2018-06-20T06:54:14.679Z,25.07
2018-06-20T06:56:43.429Z,23.67
2018-06-20T06:59:12.313Z,24.77
2018-06-20T07:01:41.194Z,24.50
2018-06-20T07:04:10.091Z,25.07
2018-06-20T07:06:38.959Z,24.90
2018-06-20T07:09:08.394Z,24.97
2018-06-20T07:11:37.282Z,24.90
2018-06-20T07:14:06.254Z,25.20
2018-06-20T07:16:35.126Z,25.80
2018-06-20T07:19:04.019Z,24.70
2018-06-20T07:21:32.896Z,25.90
2018-06-20T07:24:01.783Z,25.97
2018-06-20T07:26:30.654Z,26.33
2018-06-20T07:28:59.557Z,26.87
2018-06-20T07:31:28.475Z,27.47
2018-06-20T07:33:57.339Z,27.00
2018-06-20T07:36:26.314Z,28.27
2018-06-20T07:38:55.104Z,27.33
2018-06-20T07:41:24.042Z,29.30
2018-06-20T07:43:53.003Z,27.70
2018-06-20T07:46:21.862Z,27.47
2018-06-20T07:48:50.758Z,26.40
2018-06-20T07:51:19.627Z,26.27
2018-06-20T07:53:48.528Z,27.53
2018-06-20T07:56:17.414Z,26.67
2018-06-20T07:58:51.878Z,26.97
2018-06-20T08:02:41.491Z,31.07
2018-06-20T08:05:15.689Z,28.50
2018-06-20T08:07:50.062Z,28.30
2018-06-20T08:10:24.357Z,26.83
2018-06-20T08:12:58.883Z,25.10
2018-06-20T08:15:33.202Z,24.67
2018-06-20T08:18:07.495Z,24.77
2018-06-20T08:20:36.447Z,24.07
2018-06-20T08:23:05.490Z,24.63
2018-06-20T08:25:34.391Z,22.70
2018-06-20T08:28:03.254Z,22.10
2018-06-20T08:30:32.145Z,22.07
2018-06-20T08:33:01.022Z,22.80
2018-06-20T08:35:32.470Z,21.33
2018-06-20T08:38:01.370Z,21.73
2018-06-20T08:40:30.257Z,17.70
2018-06-20T08:42:59.138Z,18.10
2018-06-20T08:45:28.030Z,17.10
2018-06-20T08:47:56.898Z,11.73
2018-06-20T08:50:25.784Z,10.60
2018-06-20T08:52:54.655Z,10.67
2018-06-20T08:55:23.538Z,11.40
2018-06-20T08:57:52.420Z,11.37
2018-06-20T09:00:26.578Z,11.33
2018-06-20T09:02:55.563Z,10.83
2018-06-20T09:05:29.962Z,11.93
2018-06-20T09:08:04.434Z,11.40
2018-06-20T09:10:38.755Z,11.97
2018-06-20T09:13:13.028Z,11.30
2018-06-20T09:15:47.297Z,10.73
2018-06-20T09:18:21.708Z,12.07
2018-06-20T09:20:50.581Z,11.53
2018-06-20T09:23:19.457Z,10.70
2018-06-20T09:25:48.330Z,10.67
2018-06-20T09:28:17.222Z,10.60
2018-06-20T09:30:46.126Z,10.50
2018-06-20T09:33:15.095Z,10.00
2018-06-20T09:35:43.979Z,9.73
2018-06-20T09:38:12.980Z,9.70
2018-06-20T09:40:42.283Z,9.40
2018-06-20T09:43:11.151Z,9.20
2018-06-20T09:45:40.134Z,8.27
2018-06-20T09:48:09.383Z,9.10
2018-06-20T09:50:43.642Z,8.43
2018-06-20T09:53:12.501Z,8.23
2018-06-20T09:55:41.369Z,8.20
2018-06-20T09:58:10.238Z,8.73
2018-06-20T10:00:44.588Z,8.63
2018-06-20T10:03:18.858Z,8.53
2018-06-20T10:05:53.342Z,8.07
2018-06-20T10:08:27.706Z,7.80
2018-06-20T10:11:02.115Z,7.17
2018-06-20T10:13:35.222Z,5.75
2018-06-20T10:16:04.095Z,5.60
2018-06-20T10:18:32.949Z,6.13
2018-06-20T10:21:01.837Z,5.60
2018-06-20T10:23:30.678Z,5.67
2018-06-20T10:25:59.546Z,5.83
2018-06-20T10:28:28.543Z,6.33
2018-06-20T10:30:57.546Z,6.23
2018-06-20T10:33:26.418Z,6.35
2018-06-20T10:35:55.307Z,6.15
2018-06-20T10:38:24.164Z,6.92
2018-06-20T10:40:52.826Z,6.08
2018-06-20T10:43:21.595Z,6.53
2018-06-20T10:45:56.294Z,6.10
2018-06-20T10:48:25.158Z,6.60
2018-06-20T10:50:54.019Z,6.55
2018-06-20T10:53:22.896Z,6.53
2018-06-20T10:55:51.765Z,5.85
2018-06-20T10:58:26.162Z,6.28
2018-06-20T11:02:00.485Z,5.75
2018-06-20T11:04:35.878Z,5.80
2018-06-20T11:07:10.639Z,6.25
2018-06-20T11:09:45.060Z,5.65
2018-06-20T11:12:19.298Z,6.03
2018-06-20T11:14:48.171Z,6.60
2018-06-20T11:17:17.072Z,6.55
2018-06-20T11:19:45.951Z,6.10
2018-06-20T11:22:14.810Z,6.72
2018-06-20T11:24:43.683Z,6.75
2018-06-20T11:27:12.927Z,6.10
2018-06-20T11:29:41.806Z,5.90
2018-06-20T11:32:10.982Z,6.58
2018-06-20T11:34:39.864Z,6.42
2018-06-20T11:37:08.751Z,7.17
2018-06-20T11:39:37.624Z,6.58
2018-06-20T11:42:06.498Z,6.50
2018-06-20T11:44:35.375Z,6.03
2018-06-20T11:47:09.727Z,6.25
2018-06-20T11:49:38.583Z,6.37
2018-06-20T11:52:13.151Z,6.65
2018-06-20T11:54:42.031Z,7.83
2018-06-20T11:57:10.906Z,6.60
2018-06-20T11:59:45.234Z,6.10
2018-06-20T12:02:19.577Z,6.50
2018-06-20T12:04:53.726Z,6.17
2018-06-20T12:07:28.235Z,6.47
2018-06-20T12:10:02.519Z,6.40
2018-06-20T12:12:36.770Z,6.78
2018-06-20T12:15:12.649Z,6.55
2018-06-20T12:17:51.179Z,7.45
2018-06-20T12:20:25.446Z,7.22
2018-06-20T12:22:59.630Z,7.33
2018-06-20T12:25:33.853Z,7.87
2018-06-20T12:28:08.055Z,9.05
2018-06-20T12:30:42.286Z,8.90
2018-06-20T12:33:16.741Z,9.28
2018-06-20T12:35:51.219Z,8.63
2018-06-20T12:38:25.512Z,8.00
2018-06-20T12:41:04.599Z,8.73
2018-06-20T12:43:38.894Z,9.18
2018-06-20T12:46:11.370Z,9.35
2018-06-20T12:48:40.241Z,8.30
2018-06-20T12:51:09.106Z,8.63
2018-06-20T12:53:38.054Z,8.70
2018-06-20T12:56:06.954Z,8.70
2018-06-20T12:58:35.883Z,8.58
2018-06-20T13:01:04.758Z,8.45
2018-06-20T13:03:33.638Z,7.95
2018-06-20T13:06:02.510Z,8.05
2018-06-20T13:08:31.370Z,9.68
2018-06-20T13:11:00.267Z,9.45
2018-06-20T13:13:29.482Z,8.85
2018-06-20T13:15:58.419Z,8.55
2018-06-20T13:18:27.358Z,9.73
2018-06-20T13:20:56.274Z,8.88
2018-06-20T13:23:25.157Z,9.13
2018-06-20T13:25:54.030Z,9.73
2018-06-20T13:28:24.430Z,8.43
2018-06-20T13:30:59.122Z,8.80
2018-06-20T13:33:33.475Z,9.53
2018-06-20T13:36:08.078Z,7.62
2018-06-20T13:38:42.555Z,8.45
2018-06-20T13:41:18.364Z,9.43
2018-06-20T13:44:08.646Z,9.68
2018-06-20T13:46:43.342Z,10.00
2018-06-20T13:49:12.227Z,10.45
2018-06-20T13:51:41.095Z,9.93
2018-06-20T13:54:09.958Z,9.80
2018-06-20T13:56:38.844Z,10.10
2018-06-20T13:59:07.718Z,9.68
2018-06-20T14:01:36.599Z,8.95
2018-06-20T14:04:05.473Z,10.45
2018-06-20T14:06:34.359Z,9.95
2018-06-20T14:09:03.733Z,9.58
2018-06-20T14:11:32.608Z,9.33
2018-06-20T14:14:01.481Z,9.40
2018-06-20T14:16:30.366Z,8.63
2018-06-20T14:18:59.230Z,8.98
2018-06-20T14:21:33.646Z,8.93
2018-06-20T14:24:02.499Z,8.60
2018-06-20T14:26:31.387Z,8.63
2018-06-20T14:29:00.243Z,9.43
2018-06-20T14:31:34.617Z,8.83
2018-06-20T14:34:08.828Z,9.20
2018-06-20T14:36:43.351Z,7.75
2018-06-20T14:39:17.578Z,8.23
2018-06-20T14:41:51.806Z,8.70
2018-06-20T14:44:20.706Z,8.63
2018-06-20T14:46:49.589Z,8.78
2018-06-20T14:49:18.460Z,8.65
2018-06-20T14:51:47.350Z,9.00
2018-06-20T14:54:16.222Z,8.03
2018-06-20T14:56:44.882Z,8.13
2018-06-20T14:59:13.629Z,7.33
2018-06-20T15:01:42.518Z,7.30
2018-06-20T15:04:11.382Z,7.12
2018-06-20T15:06:40.283Z,7.30
2018-06-20T15:09:09.596Z,7.75
2018-06-20T15:11:38.901Z,6.80
2018-06-20T15:14:07.774Z,5.95
2018-06-20T15:16:42.106Z,6.00
2018-06-20T15:19:10.967Z,6.10
2018-06-20T15:21:39.845Z,5.78
2018-06-20T15:24:08.719Z,5.70
2018-06-20T15:26:43.046Z,5.33
2018-06-20T15:29:17.155Z,4.92
2018-06-20T15:31:51.578Z,5.05
2018-06-20T15:34:25.850Z,5.20
2018-06-20T15:37:00.298Z,5.17
2018-06-20T15:39:29.177Z,4.83
2018-06-20T15:41:58.057Z,5.08
2018-06-20T15:44:26.927Z,4.55
2018-06-20T15:49:31.027Z,4.58
2018-06-20T15:55:00.002Z,4.72
2018-06-20T15:57:28.900Z,4.08
2018-06-20T15:59:57.768Z,4.50
2018-06-20T16:02:26.826Z,4.53
2018-06-20T16:04:55.687Z,4.33
2018-06-20T16:07:24.566Z,4.45
2018-06-20T16:09:56.133Z,4.65
2018-06-20T16:12:25.390Z,4.08
2018-06-20T16:14:54.779Z,4.08
2018-06-20T16:17:23.663Z,4.60
2018-06-20T16:19:57.763Z,4.75
2018-06-20T16:22:32.018Z,4.53
2018-06-20T16:25:06.415Z,4.30
2018-06-20T16:27:40.875Z,4.55
2018-06-20T16:30:15.091Z,4.70
2018-06-20T16:32:43.995Z,4.20
2018-06-20T16:35:12.868Z,4.30
2018-06-20T16:37:41.793Z,3.90
2018-06-20T16:40:10.380Z,4.20
2018-06-20T16:42:39.142Z,4.40
2018-06-20T16:45:08.080Z,4.28
2018-06-20T16:47:36.975Z,4.58
2018-06-20T16:50:05.861Z,3.83
2018-06-20T16:52:34.811Z,4.00
2018-06-20T16:55:03.686Z,3.80
2018-06-20T16:57:33.101Z,3.70
2018-06-20T17:00:03.073Z,3.45
2018-06-20T17:02:35.234Z,3.20
2018-06-20T17:05:05.445Z,3.22
2018-06-20T17:07:35.354Z,3.55
2018-06-20T17:10:05.752Z,3.80
2018-06-20T17:14:47.935Z,3.58
2018-06-20T17:17:23.310Z,3.42
2018-06-20T17:19:58.603Z,3.37
2018-06-20T17:22:34.109Z,3.40
2018-06-20T17:25:10.062Z,3.12
2018-06-20T17:27:40.209Z,2.87
2018-06-20T17:30:09.881Z,2.95
2018-06-20T17:32:39.272Z,3.00
2018-06-20T17:35:08.852Z,2.65
2018-06-20T17:37:38.422Z,2.35
2018-06-20T17:40:07.921Z,2.55
2018-06-20T17:42:37.619Z,2.55
2018-06-20T17:45:06.671Z,2.50
2018-06-20T17:47:35.541Z,2.50
2018-06-20T17:50:05.308Z,2.40
2018-06-20T17:52:34.276Z,2.40
2018-06-20T17:55:03.210Z,2.52
2018-06-20T17:57:32.078Z,2.25
2018-06-20T18:00:01.019Z,2.25
2018-06-20T18:02:29.910Z,2.27
2018-06-20T18:05:04.389Z,2.60
2018-06-20T18:07:38.659Z,3.52
2018-06-20T18:10:12.865Z,2.95
2018-06-20T18:12:47.118Z,2.58
2018-06-20T18:15:21.647Z,2.37
2018-06-20T18:17:50.526Z,2.50
2018-06-20T18:20:19.410Z,2.60
2018-06-20T18:22:48.293Z,2.72
2018-06-20T18:25:17.189Z,3.08
2018-06-20T18:27:46.073Z,2.67
2018-06-20T18:30:14.941Z,2.45
2018-06-20T18:32:43.825Z,2.80
2018-06-20T18:35:12.728Z,2.90
2018-06-20T18:37:41.631Z,2.65
2018-06-20T18:40:11.162Z,2.70
2018-06-20T18:42:40.051Z,2.50
2018-06-20T18:45:08.942Z,2.65
2018-06-20T18:47:43.113Z,2.50
2018-06-20T18:50:11.874Z,2.40
2018-06-20T18:52:40.745Z,2.83
2018-06-20T18:55:09.652Z,2.70
2018-06-20T18:57:43.921Z,2.75
2018-06-20T19:00:18.106Z,2.65
2018-06-20T19:02:52.747Z,2.52
2018-06-20T19:05:27.290Z,2.87
2018-06-20T19:08:01.535Z,2.90
2018-06-20T19:10:30.427Z,2.83
2018-06-20T19:17:28.040Z,2.85
2018-06-20T19:19:56.974Z,2.85
2018-06-20T19:22:25.801Z,2.60
2018-06-20T19:24:54.687Z,2.72
2018-06-20T19:27:23.572Z,2.75
2018-06-20T19:29:52.447Z,2.75
2018-06-20T19:32:21.507Z,2.80
2018-06-20T19:34:50.942Z,3.12
2018-06-20T19:37:19.851Z,3.10
2018-06-20T19:39:50.523Z,3.00
2018-06-20T19:42:20.706Z,3.17
2018-06-20T19:44:49.690Z,3.05
2018-06-20T19:47:18.475Z,3.00
2018-06-20T19:49:47.349Z,3.12
2018-06-20T19:52:16.446Z,3.08
2018-06-20T19:54:45.323Z,3.10
2018-06-20T19:57:14.367Z,3.30
2018-06-20T19:59:44.817Z,3.37
2018-06-20T20:02:13.814Z,2.90
2018-06-20T20:04:43.622Z,3.17
2018-06-20T20:07:12.732Z,3.40
2018-06-20T20:09:41.470Z,3.27
2018-06-20T20:12:11.594Z,3.10
2018-06-20T20:14:41.175Z,3.20
2018-06-20T20:17:10.040Z,3.27
2018-06-20T20:19:38.907Z,2.70
2018-06-20T20:22:07.790Z,3.10
2018-06-20T20:24:36.440Z,3.17
2018-06-20T20:27:05.369Z,2.97
2018-06-20T20:29:34.262Z,3.03
2018-06-20T20:32:03.415Z,2.90
2018-06-20T20:34:32.330Z,3.10
2018-06-20T20:37:01.205Z,3.30
2018-06-20T20:39:30.096Z,3.30
2018-06-20T20:41:58.955Z,3.43
2018-06-20T20:44:27.837Z,3.10
2018-06-20T20:46:56.728Z,3.17
2018-06-20T20:49:25.623Z,3.53
2018-06-20T20:51:54.488Z,3.20
2018-06-20T20:54:23.378Z,3.60
2018-06-20T20:56:52.257Z,3.43
2018-06-20T20:59:21.150Z,3.60
2018-06-20T21:01:50.036Z,3.40
2018-06-20T21:04:18.917Z,3.70
2018-06-20T21:06:47.811Z,3.53
2018-06-20T21:09:16.701Z,3.30
2018-06-20T21:11:45.585Z,3.53
2018-06-20T21:14:14.474Z,3.40
2018-06-20T21:16:43.357Z,3.20
2018-06-20T21:19:12.242Z,3.70
2018-06-20T21:21:40.919Z,3.53
2018-06-20T21:24:09.671Z,3.47
2018-06-20T21:26:38.547Z,3.50
2018-06-20T21:29:07.449Z,4.03
2018-06-20T21:31:36.326Z,4.40
2018-06-20T21:34:05.254Z,4.13
2018-06-20T21:36:34.137Z,4.43
2018-06-20T21:39:03.043Z,4.10
2018-06-20T21:41:31.917Z,4.70
2018-06-20T21:44:00.815Z,4.60
2018-06-20T21:46:29.690Z,4.90
2018-06-20T21:48:58.581Z,4.77
2018-06-20T21:51:27.463Z,5.37
2018-06-20T21:53:56.371Z,5.40
2018-06-20T21:56:25.236Z,5.70
2018-06-20T21:58:54.139Z,6.13
2018-06-20T22:01:23.431Z,5.83
2018-06-20T22:03:52.697Z,5.80
2018-06-20T22:06:21.647Z,6.67
2018-06-20T22:08:50.586Z,6.23
2018-06-20T22:11:19.471Z,6.33
2018-06-20T22:13:48.349Z,5.70
2018-06-20T22:16:17.239Z,6.00
2018-06-20T22:18:46.186Z,5.67
2018-06-20T22:21:15.318Z,5.77
2018-06-20T22:23:45.141Z,5.63
2018-06-20T22:26:14.015Z,5.80
2018-06-20T22:28:42.919Z,7.30
2018-06-20T22:31:11.793Z,7.00
2018-06-20T22:33:40.694Z,6.23
2018-06-20T22:36:09.571Z,7.53
2018-06-20T22:38:38.441Z,7.43
2018-06-20T22:41:07.321Z,7.67
2018-06-20T22:43:36.193Z,7.60
2018-06-20T22:46:05.083Z,7.87
2018-06-20T22:48:33.967Z,8.17
2018-06-20T22:51:02.851Z,8.57
2018-06-20T22:53:31.722Z,8.33
2018-06-20T22:56:00.607Z,8.57
2018-06-20T22:58:29.487Z,8.40
2018-06-20T23:00:58.373Z,8.70
2018-06-20T23:03:27.241Z,8.50
2018-06-20T23:05:56.138Z,8.70
2018-06-20T23:08:25.009Z,8.17
2018-06-20T23:10:53.917Z,8.33
2018-06-20T23:13:22.786Z,8.80
2018-06-20T23:15:51.678Z,8.40
2018-06-20T23:18:20.831Z,8.43
2018-06-20T23:20:49.725Z,8.50
2018-06-20T23:23:18.596Z,9.10
2018-06-20T23:25:47.489Z,9.00
2018-06-20T23:28:16.367Z,9.20
2018-06-20T23:30:45.252Z,8.67
2018-06-20T23:33:14.123Z,8.77
2018-06-20T23:35:43.001Z,8.13
2018-06-20T23:38:11.875Z,8.57
2018-06-20T23:40:40.779Z,8.37
2018-06-20T23:43:09.691Z,8.00
2018-06-20T23:45:38.600Z,7.90
2018-06-20T23:48:07.478Z,8.33
2018-06-20T23:50:36.389Z,8.57
2018-06-20T23:53:05.237Z,9.17
2018-06-20T23:55:34.119Z,8.80
2018-06-20T23:58:02.998Z,9.07
